Time;durP1;ratioP1;P1;durP2;ratioP2;P2;SDS_P1;SDS_P2;PMS_P1;PMS_P2;Temp;Humidity;BMP_temperature;BMP_pressure;BME280_temperature;BME280_humidity;BME280_pressure;Samples;Min_cycle;Max_cycle;Signal;HPM_P1;HPM_P2
2021/01/30 00:00:24;;;;;;;3.00;2.00;;;;;;;5.37;100.00;96347.81;5004379;28;20216;-73
2021/01/30 00:02:52;;;;;;;6.40;5.23;;;;;;;5.40;100.00;96351.91;5007759;28;20201;-71
2021/01/30 00:05:19;;;;;;;2.47;2.27;;;;;;;5.39;100.00;96356.34;5001983;28;20205;-71
2021/01/30 00:07:46;;;;;;;2.23;2.10;;;;;;;5.40;100.00;96355.34;5002331;28;20197;-71
2021/01/30 00:10:15;;;;;;;2.83;2.60;;;;;;;5.31;100.00;96357.22;4994667;28;20808;-72
2021/01/30 00:12:42;;;;;;;2.83;2.53;;;;;;;5.33;100.00;96355.22;5007054;28;20229;-74
2021/01/30 00:15:10;;;;;;;2.67;2.43;;;;;;;5.21;100.00;96362.66;4999667;28;20286;-72
2021/01/30 00:17:38;;;;;;;5.20;3.63;;;;;;;5.11;100.00;96369.91;5011170;28;20213;-73
2021/01/30 00:20:09;;;;;;;4.40;2.37;;;;;;;5.05;100.00;96378.44;5014566;28;20320;-71
2021/01/30 00:22:36;;;;;;;2.97;2.17;;;;;;;5.01;100.00;96371.91;5012843;28;20554;-73
2021/01/30 00:25:04;;;;;;;5.70;4.17;;;;;;;5.06;100.00;96364.34;5004014;28;20243;-72
2021/01/30 00:27:31;;;;;;;3.57;3.27;;;;;;;4.98;100.00;96370.44;5000241;28;20211;-71
2021/01/30 00:29:58;;;;;;;2.80;2.60;;;;;;;4.98;100.00;96377.50;4995738;28;20204;-73
2021/01/30 00:32:26;;;;;;;5.90;4.13;;;;;;;4.92;100.00;96377.19;4998036;28;20221;-71
2021/01/30 00:34:54;;;;;;;2.40;2.27;;;;;;;4.95;100.00;96390.97;4998989;28;20237;-73
2021/01/30 00:37:22;;;;;;;2.40;2.00;;;;;;;4.98;100.00;96380.13;4999523;28;20581;-72
2021/01/30 00:39:51;;;;;;;4.37;3.03;;;;;;;4.96;100.00;96379.47;4986011;28;20208;-72
2021/01/30 00:42:19;;;;;;;2.47;2.27;;;;;;;4.87;100.00;96383.91;4989517;28;20216;-72
2021/01/30 00:44:47;;;;;;;3.50;3.20;;;;;;;4.83;100.00;96374.75;4992536;28;20240;-72
2021/01/30 00:47:14;;;;;;;2.03;1.93;;;;;;;4.91;100.00;96372.09;4996090;28;20239;-72
2021/01/30 00:49:42;;;;;;;2.43;2.30;;;;;;;4.87;100.00;96368.16;4964271;28;20258;-72
2021/01/30 00:52:13;;;;;;;3.07;2.27;;;;;;;4.87;100.00;96357.66;4994853;28;20212;-71
2021/01/30 00:54:40;;;;;;;3.90;1.93;;;;;;;4.82;100.00;96368.69;4990053;28;20240;-71
2021/01/30 00:57:07;;;;;;;2.73;1.80;;;;;;;4.82;100.00;96371.31;4992925;28;20209;-71
2021/01/30 00:59:35;;;;;;;2.13;1.97;;;;;;;4.74;100.00;96377.38;4994503;28;20212;-70
2021/01/30 01:02:02;;;;;;;2.07;1.87;;;;;;;4.78;100.00;96375.25;5004704;28;20559;-72
2021/01/30 01:04:30;;;;;;;1.97;1.87;;;;;;;4.77;100.00;96379.69;5005075;28;20306;-72
2021/01/30 01:06:57;;;;;;;1.83;1.70;;;;;;;4.92;100.00;96382.44;5004089;28;20216;-70
2021/01/30 01:09:25;;;;;;;1.93;1.83;;;;;;;4.95;100.00;96377.84;4999326;28;20578;-71
2021/01/30 01:11:52;;;;;;;1.80;1.60;;;;;;;4.97;100.00;96394.22;5005872;28;20208;-72
2021/01/30 01:14:21;;;;;;;2.07;1.50;;;;;;;5.00;100.00;96399.16;4999633;28;20240;-73
2021/01/30 01:16:48;;;;;;;4.77;1.53;;;;;;;4.98;100.00;96395.88;4997073;28;20407;-73
2021/01/30 01:19:16;;;;;;;3.37;1.53;;;;;;;4.95;100.00;96396.22;5004137;28;20207;-72
2021/01/30 01:21:43;;;;;;;1.37;1.30;;;;;;;5.02;100.00;96400.63;4996998;28;20665;-72
2021/01/30 01:24:10;;;;;;;1.60;1.50;;;;;;;5.08;100.00;96401.75;4996780;28;20574;-70
2021/01/30 01:26:38;;;;;;;1.40;1.40;;;;;;;5.17;97.05;96403.38;4997539;28;20215;-72
2021/01/30 01:29:04;;;;;;;1.50;1.40;;;;;;;5.21;96.57;96404.69;5001301;28;20212;-71
2021/01/30 01:31:31;;;;;;;3.13;1.47;;;;;;;5.19;97.81;96390.06;4997485;28;20212;-70
2021/01/30 01:33:59;;;;;;;1.77;1.13;;;;;;;5.13;97.53;96394.22;4998369;28;20236;-73
2021/01/30 01:36:26;;;;;;;3.80;1.30;;;;;;;5.12;96.99;96397.81;4996911;28;20379;-72
2021/01/30 01:38:53;;;;;;;1.27;1.23;;;;;;;5.22;94.05;96394.97;4997465;28;20602;-71
2021/01/30 01:41:20;;;;;;;2.33;1.40;;;;;;;5.15;95.30;96405.34;4994696;28;20578;-72
2021/01/30 01:43:50;;;;;;;1.57;1.47;;;;;;;5.28;93.35;96409.25;4997377;28;20748;-70
2021/01/30 01:46:21;;;;;;;2.20;1.40;;;;;;;5.35;92.10;96384.78;4994160;28;20204;-71
2021/01/30 01:48:52;;;;;;;1.70;1.30;;;;;;;5.36;92.31;96396.91;4992471;28;20212;-71
2021/01/30 01:51:26;;;;;;;1.53;1.17;;;;;;;5.36;93.95;96388.19;4994051;28;20205;-71
2021/01/30 01:53:53;;;;;;;1.87;1.57;;;;;;;5.33;93.69;96383.28;4994929;28;20236;-74
2021/01/30 01:56:23;;;;;;;3.20;1.50;;;;;;;5.36;93.49;96372.44;4995946;28;20228;-71
2021/01/30 01:58:52;;;;;;;2.50;1.70;;;;;;;5.33;93.46;96378.03;4997770;28;20205;-70
2021/01/30 02:01:20;;;;;;;4.80;1.60;;;;;;;5.38;94.12;96388.03;4996338;28;20201;-70
2021/01/30 02:03:54;;;;;;;2.27;1.60;;;;;;;5.32;94.61;96403.50;4993625;28;20228;-71
2021/01/30 02:06:21;;;;;;;1.80;1.70;;;;;;;5.41;93.30;96385.88;4998817;28;20676;-72
2021/01/30 02:08:49;;;;;;;3.00;1.73;;;;;;;5.32;93.83;96394.78;4990234;28;20216;-70
2021/01/30 02:11:16;;;;;;;1.60;1.50;;;;;;;5.33;93.85;96368.34;4991143;28;20208;-71
2021/01/30 02:13:46;;;;;;;3.10;1.80;;;;;;;5.33;93.79;96370.16;4995801;28;20423;-71
2021/01/30 02:16:27;;;;;;;1.10;1.10;;;;;;;5.33;93.79;96380.66;4997521;28;20228;-71
2021/01/30 02:19:03;;;;;;;3.57;1.60;;;;;;;5.38;94.61;96359.16;4994533;28;20235;-70
2021/01/30 02:21:55;;;;;;;2.07;1.97;;;;;;;5.30;94.18;96349.47;4995557;28;20582;-70
2021/01/30 02:24:53;;;;;;;1.77;1.67;;;;;;;5.32;94.87;96368.53;4993545;28;20232;-71
2021/01/30 02:27:46;;;;;;;2.03;1.90;;;;;;;5.35;93.93;96368.19;4996621;28;20216;-71
2021/01/30 02:30:52;;;;;;;2.57;2.07;;;;;;;5.39;92.04;96366.84;4999840;28;20196;-71
2021/01/30 02:34:04;;;;;;;2.67;1.87;;;;;;;5.38;92.02;96364.41;4994112;28;20224;-70
2021/01/30 02:36:37;;;;;;;1.50;1.47;;;;;;;5.35;92.31;96369.00;4999955;28;20225;-71
2021/01/30 02:39:11;;;;;;;2.20;1.60;;;;;;;5.33;91.79;96357.84;4996070;28;20205;-71
2021/01/30 02:41:40;;;;;;;1.50;1.40;;;;;;;5.34;92.15;96369.16;4995230;28;20479;-71
2021/01/30 02:44:11;;;;;;;2.07;1.73;;;;;;;5.35;92.06;96366.38;4997524;28;20240;-71
2021/01/30 02:46:40;;;;;;;1.70;1.60;;;;;;;5.37;91.43;96363.56;4993814;28;20216;-73
2021/01/30 02:49:11;;;;;;;3.80;1.87;;;;;;;5.31;91.74;96382.63;4995196;28;20208;-72
2021/01/30 02:51:41;;;;;;;1.77;1.67;;;;;;;5.28;92.04;96393.50;4993641;28;20227;-71
2021/01/30 02:54:10;;;;;;;1.70;1.60;;;;;;;5.31;92.30;96380.00;4996814;28;20228;-71
2021/01/30 02:56:38;;;;;;;1.37;1.37;;;;;;;5.28;90.27;96373.28;4998050;28;20236;-71
2021/01/30 02:59:07;;;;;;;2.00;1.63;;;;;;;5.21;91.44;96375.78;4994866;28;20620;-71
2021/01/30 03:01:36;;;;;;;2.07;1.80;;;;;;;5.25;90.55;96372.81;4997653;28;20208;-70
2021/01/30 03:04:07;;;;;;;2.33;2.23;;;;;;;5.15;90.97;96375.63;4997792;28;20312;-70
2021/01/30 03:06:43;;;;;;;1.77;1.67;;;;;;;5.14;91.19;96376.63;4999381;28;20598;-70
2021/01/30 03:09:16;;;;;;;3.47;1.77;;;;;;;5.07;91.00;96394.84;4998722;28;20606;-71
2021/01/30 03:11:48;;;;;;;2.37;2.00;;;;;;;5.09;90.44;96389.44;4997094;28;20628;-70
2021/01/30 03:14:30;;;;;;;1.53;1.43;;;;;;;5.05;91.70;96387.16;4990487;28;20236;-70
2021/01/30 03:17:00;;;;;;;1.60;1.50;;;;;;;5.04;90.86;96393.41;4993184;28;20235;-71
2021/01/30 03:19:30;;;;;;;1.63;1.53;;;;;;;5.03;90.97;96386.50;4995702;28;20211;-70
2021/01/30 03:22:02;;;;;;;1.90;1.60;;;;;;;5.00;91.50;96388.66;4993324;28;20308;-70
2021/01/30 03:24:30;;;;;;;3.00;1.50;;;;;;;4.97;91.76;96376.69;4994636;28;20225;-71
2021/01/30 03:26:57;;;;;;;2.20;1.40;;;;;;;4.98;91.87;96382.75;4997743;28;20232;-71
2021/01/30 03:29:24;;;;;;;1.70;1.60;;;;;;;4.88;92.50;96396.88;4994878;28;20201;-71
2021/01/30 03:31:52;;;;;;;1.50;1.40;;;;;;;4.87;92.84;96392.63;4999370;28;20204;-71
2021/01/30 03:34:20;;;;;;;1.10;1.10;;;;;;;4.87;92.52;96390.00;4996746;28;20675;-71
2021/01/30 03:36:47;;;;;;;2.80;1.97;;;;;;;4.91;91.87;96408.84;4995054;28;20267;-71
2021/01/30 03:39:16;;;;;;;1.97;1.50;;;;;;;4.83;93.22;96401.81;4996203;28;20224;-70
2021/01/30 03:41:44;;;;;;;1.67;1.57;;;;;;;4.87;93.24;96405.75;4998368;28;20212;-71
2021/01/30 03:44:13;;;;;;;2.30;1.20;;;;;;;4.86;92.70;96414.59;4992571;28;20608;-71
2021/01/30 03:46:40;;;;;;;1.50;1.40;;;;;;;4.90;93.20;96420.31;4991309;28;20201;-71
2021/01/30 03:49:08;;;;;;;2.50;1.50;;;;;;;4.87;93.01;96424.13;4997151;28;20212;-71
2021/01/30 03:51:35;;;;;;;1.37;1.20;;;;;;;4.87;93.59;96416.25;4995113;28;20204;-70
2021/01/30 03:54:02;;;;;;;1.50;1.40;;;;;;;4.88;93.48;96409.19;4996390;28;20224;-70
2021/01/30 03:56:30;;;;;;;1.53;1.37;;;;;;;4.92;93.33;96418.34;4996031;28;20225;-71
2021/01/30 03:58:57;;;;;;;1.60;1.50;;;;;;;4.89;93.71;96414.28;5000283;28;20295;-71
2021/01/30 04:01:31;;;;;;;1.70;1.60;;;;;;;4.91;93.89;96414.09;4998086;28;20209;-70
2021/01/30 04:04:04;;;;;;;1.40;1.30;;;;;;;4.88;94.64;96419.69;4998174;28;20227;-70
2021/01/30 04:06:31;;;;;;;1.10;1.10;;;;;;;4.89;94.10;96426.56;4996481;28;20239;-70
2021/01/30 04:08:59;;;;;;;2.93;1.10;;;;;;;4.82;94.77;96429.06;5001494;28;20208;-70
2021/01/30 04:11:26;;;;;;;1.77;1.67;;;;;;;4.83;95.50;96425.44;4999561;28;20209;-71
2021/01/30 04:13:55;;;;;;;1.90;1.80;;;;;;;4.83;95.15;96424.59;4996185;28;20734;-71
2021/01/30 04:16:22;;;;;;;3.87;1.77;;;;;;;4.84;95.67;96436.75;5000247;28;20225;-70
2021/01/30 04:18:49;;;;;;;2.40;1.47;;;;;;;4.87;95.64;96433.78;4997155;28;20295;-71
2021/01/30 04:21:17;;;;;;;1.90;1.23;;;;;;;4.86;94.73;96435.59;4998920;28;20239;-71
2021/01/30 04:23:44;;;;;;;1.70;1.60;;;;;;;4.99;94.64;96431.63;4998990;28;20624;-72
2021/01/30 04:26:11;;;;;;;1.70;1.60;;;;;;;5.00;94.18;96435.91;5002660;28;20205;-71
2021/01/30 04:28:38;;;;;;;1.90;1.30;;;;;;;5.02;94.54;96436.56;4999559;28;20208;-70
2021/01/30 04:31:07;;;;;;;1.67;1.40;;;;;;;5.08;94.05;96428.00;5000293;28;20710;-70
2021/01/30 04:33:34;;;;;;;1.80;1.60;;;;;;;5.02;94.42;96439.19;4996538;28;20303;-71
2021/01/30 04:36:06;;;;;;;1.63;1.53;;;;;;;5.06;94.43;96422.09;5000907;28;20325;-72
2021/01/30 04:38:34;;;;;;;2.73;1.70;;;;;;;5.07;94.79;96421.94;4998179;28;20209;-70
2021/01/30 04:41:08;;;;;;;2.20;1.40;;;;;;;5.09;94.32;96434.09;4996893;28;20409;-70
2021/01/30 04:43:40;;;;;;;1.33;1.27;;;;;;;5.10;94.41;96419.97;4998347;28;20251;-70
2021/01/30 04:46:23;;;;;;;1.83;1.70;;;;;;;5.09;94.90;96416.50;4996316;28;20283;-71
2021/01/30 04:48:55;;;;;;;2.33;1.40;;;;;;;5.10;94.58;96414.72;4995178;28;20216;-72
2021/01/30 04:51:30;;;;;;;1.47;1.30;;;;;;;5.13;94.56;96417.00;4993925;28;20212;-70
2021/01/30 04:54:13;;;;;;;1.43;1.33;;;;;;;5.09;93.75;96398.13;4996550;28;20235;-71
2021/01/30 04:56:56;;;;;;;1.73;1.37;;;;;;;5.12;93.66;96400.44;4995386;28;20229;-71
2021/01/30 04:59:31;;;;;;;1.50;1.40;;;;;;;5.09;94.29;96402.59;4997857;28;20204;-71
2021/01/30 05:02:03;;;;;;;2.00;1.73;;;;;;;5.17;93.80;96406.00;4997065;28;20216;-71
2021/01/30 05:04:32;;;;;;;1.47;1.20;;;;;;;5.11;94.12;96405.84;4998013;28;20311;-70
2021/01/30 05:07:10;;;;;;;1.43;1.43;;;;;;;5.14;94.36;96400.25;4995345;28;20212;-71
2021/01/30 05:09:42;;;;;;;2.23;1.63;;;;;;;5.16;93.99;96408.78;4998501;28;20207;-71
2021/01/30 05:12:25;;;;;;;1.43;1.40;;;;;;;5.16;93.76;96401.75;4995895;28;20208;-71
2021/01/30 05:14:59;;;;;;;1.80;1.50;;;;;;;5.13;93.86;96406.50;4994229;28;20236;-70
2021/01/30 05:17:32;;;;;;;1.63;1.43;;;;;;;5.13;94.46;96409.13;4994346;28;20296;-70
2021/01/30 05:20:03;;;;;;;3.10;1.37;;;;;;;5.19;94.04;96396.16;4996262;28;20721;-71
2021/01/30 05:22:36;;;;;;;2.07;1.97;;;;;;;5.14;93.92;96398.47;4994932;28;20211;-71
2021/01/30 05:25:06;;;;;;;1.73;1.63;;;;;;;5.15;94.09;96402.72;4991341;28;20221;-69
2021/01/30 05:28:00;;;;;;;2.10;1.10;;;;;;;5.14;94.13;96395.84;4993924;28;20205;-69
2021/01/30 05:30:33;;;;;;;2.33;1.47;;;;;;;5.16;93.88;96401.75;4996447;28;20390;-72
2021/01/30 05:33:12;;;;;;;2.00;1.20;;;;;;;5.15;93.34;96384.34;5012121;28;20285;-73
2021/01/30 05:35:45;;;;;;;1.97;1.70;;;;;;;5.12;94.23;96391.72;5016896;28;20224;-74
2021/01/30 05:38:23;;;;;;;2.33;1.17;;;;;;;5.09;94.93;96395.50;5019628;28;20204;-72
2021/01/30 05:40:57;;;;;;;1.13;1.10;;;;;;;5.22;94.34;96385.31;5011457;28;20211;-75
2021/01/30 05:43:27;;;;;;;1.97;1.50;;;;;;;5.05;94.58;96389.78;5010620;28;20240;-72
2021/01/30 05:45:57;;;;;;;2.30;1.20;;;;;;;5.09;94.98;96399.94;5009028;28;20454;-73
2021/01/30 05:48:28;;;;;;;1.37;1.27;;;;;;;5.02;96.41;96391.91;5013936;28;20228;-75
2021/01/30 05:50:59;;;;;;;1.20;1.10;;;;;;;5.01;97.12;96396.38;5016356;28;20220;-75
2021/01/30 05:53:27;;;;;;;1.57;1.47;;;;;;;4.95;99.48;96399.66;5010655;28;20220;-73
2021/01/30 05:55:54;;;;;;;1.40;1.30;;;;;;;4.81;100.00;96389.84;5009052;28;20242;-73
2021/01/30 05:58:23;;;;;;;1.33;1.00;;;;;;;4.70;100.00;96388.38;5019471;28;20208;-74
2021/01/30 06:00:50;;;;;;;1.53;1.23;;;;;;;4.61;100.00;96388.38;5010481;28;20208;-74
2021/01/30 06:03:22;;;;;;;1.00;1.00;;;;;;;4.47;100.00;96384.63;5014846;28;20252;-74
2021/01/30 06:05:51;;;;;;;0.80;0.80;;;;;;;4.42;100.00;96379.06;5010659;28;20740;-75
2021/01/30 06:08:21;;;;;;;0.90;0.90;;;;;;;4.30;100.00;96385.63;5014294;28;20219;-76
2021/01/30 06:10:52;;;;;;;0.70;0.70;;;;;;;4.25;100.00;96380.88;5010582;28;20208;-74
2021/01/30 06:13:23;;;;;;;1.30;1.20;;;;;;;4.14;100.00;96379.38;5011367;28;20488;-74
2021/01/30 06:15:54;;;;;;;1.50;1.50;;;;;;;4.13;100.00;96377.75;5016713;28;20692;-75
2021/01/30 06:18:37;;;;;;;1.00;1.00;;;;;;;4.08;100.00;96374.00;5010914;28;20200;-74
2021/01/30 06:21:08;;;;;;;1.90;1.37;;;;;;;4.08;100.00;96385.28;5014196;28;20528;-76
2021/01/30 06:23:35;;;;;;;1.13;1.13;;;;;;;4.14;100.00;96389.06;5014966;28;20227;-74
2021/01/30 06:26:20;;;;;;;1.53;1.43;;;;;;;4.08;100.00;96384.47;5016677;28;20215;-75
2021/01/30 06:28:56;;;;;;;1.77;1.50;;;;;;;4.01;100.00;96379.88;5012593;28;20215;-74
2021/01/30 06:31:26;;;;;;;2.00;1.83;;;;;;;4.01;100.00;96390.38;5009086;28;20211;-76
2021/01/30 06:33:57;;;;;;;1.80;1.70;;;;;;;4.04;100.00;96378.72;5016229;28;20228;-77
2021/01/30 06:36:27;;;;;;;1.23;1.23;;;;;;;4.04;100.00;96382.19;5016647;28;20398;-75
2021/01/30 06:39:10;;;;;;;2.73;2.03;;;;;;;4.07;100.00;96377.59;5014918;28;20204;-77
2021/01/30 06:41:38;;;;;;;1.73;1.67;;;;;;;4.04;100.00;96378.72;5012323;28;20545;-78
2021/01/30 06:44:13;;;;;;;1.90;1.63;;;;;;;4.06;100.00;96382.00;5016581;28;20705;-75
2021/01/30 06:47:15;;;;;;;1.40;1.40;;;;;;;4.15;100.00;96381.03;5015221;28;20208;-74
2021/01/30 06:49:44;;;;;;;1.57;1.53;;;;;;;4.10;100.00;96383.31;5018870;28;20203;-75
2021/01/30 06:52:15;;;;;;;1.50;1.30;;;;;;;4.14;100.00;96387.25;5009292;28;20201;-74
2021/01/30 06:54:42;;;;;;;1.43;1.33;;;;;;;4.17;100.00;96383.50;5009862;28;20235;-77
2021/01/30 06:57:15;;;;;;;1.90;1.67;;;;;;;4.18;100.00;96383.34;5007162;28;20224;-76
2021/01/30 06:59:52;;;;;;;3.27;2.97;;;;;;;4.14;100.00;96378.56;5020665;28;20258;-75
2021/01/30 07:02:24;;;;;;;1.77;1.53;;;;;;;4.18;100.00;96382.50;5013764;28;20242;-77
2021/01/30 07:05:18;;;;;;;1.27;1.20;;;;;;;4.17;100.00;96383.50;5021448;28;20251;-75
2021/01/30 07:07:54;;;;;;;1.37;1.10;;;;;;;4.16;100.00;96379.22;5003931;28;20842;-74
2021/01/30 07:10:29;;;;;;;9.80;8.97;;;;;;;4.25;100.00;96382.69;5016661;28;20906;-78
2021/01/30 07:13:11;;;;;;;3.37;3.10;;;;;;;4.26;100.00;96377.25;5022353;28;20220;-76
2021/01/30 07:15:41;;;;;;;1.27;1.27;;;;;;;4.19;100.00;96382.34;5017186;28;20223;-75
2021/01/30 07:18:28;;;;;;;1.50;1.50;;;;;;;4.26;100.00;96377.25;5023899;28;20628;-76
2021/01/30 07:21:11;;;;;;;0.90;0.90;;;;;;;4.28;100.00;96384.97;5014584;28;20212;-76
2021/01/30 07:23:45;;;;;;;0.70;0.70;;;;;;;4.29;100.00;96373.50;5017165;28;20311;-76
2021/01/30 07:26:16;;;;;;;1.17;1.17;;;;;;;4.29;100.00;96374.31;5020354;28;20196;-75
2021/01/30 07:28:46;;;;;;;3.20;1.17;;;;;;;4.37;100.00;96385.81;5020404;28;20251;-77
2021/01/30 07:31:27;;;;;;;1.33;1.20;;;;;;;4.30;100.00;96388.25;5020574;28;20212;-77
2021/01/30 07:33:59;;;;;;;0.70;0.70;;;;;;;4.29;100.00;96386.63;5026780;28;20228;-76
2021/01/30 07:36:30;;;;;;;2.07;1.70;;;;;;;4.29;100.00;96373.50;5016957;28;20235;-75
2021/01/30 07:39:03;;;;;;;1.27;0.90;;;;;;;4.27;100.00;96376.28;5021190;28;20593;-76
2021/01/30 07:41:39;;;;;;;0.87;0.83;;;;;;;4.26;100.00;96381.69;5021028;28;20775;-76
2021/01/30 07:44:11;;;;;;;1.30;1.20;;;;;;;4.33;100.00;96372.19;5022516;28;20224;-76
2021/01/30 07:46:41;;;;;;;4.47;4.20;;;;;;;4.23;100.00;96368.91;5022794;28;20197;-77
2021/01/30 07:49:12;;;;;;;1.57;1.47;;;;;;;4.20;100.00;96370.06;5016857;28;20236;-75
2021/01/30 07:51:55;;;;;;;1.23;1.23;;;;;;;4.12;100.00;96375.31;5021433;28;20589;-76
2021/01/30 07:54:23;;;;;;;0.90;0.90;;;;;;;4.10;100.00;96364.97;5020320;28;20225;-76
2021/01/30 07:57:13;;;;;;;1.40;1.30;;;;;;;4.10;100.00;96359.72;5018384;28;20726;-76
2021/01/30 07:59:46;;;;;;;1.17;1.07;;;;;;;4.05;100.00;96354.16;5020622;28;20295;-78
2021/01/30 08:02:46;;;;;;;2.30;1.37;;;;;;;4.06;100.00;96361.03;5020348;28;20214;-76
2021/01/30 08:05:36;;;;;;;1.93;1.77;;;;;;;4.07;100.00;96359.25;5022304;28;20220;-77
2021/01/30 08:08:12;;;;;;;0.77;0.77;;;;;;;4.03;100.00;96354.34;5017345;28;20663;-77
2021/01/30 08:10:53;;;;;;;2.30;1.47;;;;;;;4.06;100.00;96340.06;5017532;28;20215;-75
2021/01/30 08:13:28;;;;;;;1.60;1.10;;;;;;;4.02;100.00;96342.22;5021710;28;20235;-76
2021/01/30 08:16:06;;;;;;;2.97;1.93;;;;;;;4.11;100.00;96337.75;5014313;28;20310;-75
2021/01/30 08:18:36;;;;;;;1.77;1.67;;;;;;;4.13;100.00;96340.22;5016445;28;20287;-76
2021/01/30 08:21:11;;;;;;;2.33;2.10;;;;;;;4.20;100.00;96339.41;5014219;28;20204;-76
2021/01/30 08:23:48;;;;;;;3.73;1.97;;;;;;;4.20;100.00;96333.34;5020643;28;20386;-77
2021/01/30 08:26:21;;;;;;;4.17;2.50;;;;;;;4.24;100.00;96334.66;5021948;28;20204;-77
2021/01/30 08:28:58;;;;;;;2.77;2.10;;;;;;;4.26;100.00;96327.44;5011621;28;20630;-78
2021/01/30 08:31:33;;;;;;;10.47;7.07;;;;;;;4.30;100.00;96344.47;5012641;28;20975;-77
2021/01/30 08:34:01;;;;;;;8.43;5.20;;;;;;;4.46;100.00;96334.97;5014225;28;20232;-74
2021/01/30 08:36:34;;;;;;;3.20;2.90;;;;;;;4.46;100.00;96329.72;5023438;28;20227;-76
2021/01/30 08:39:05;;;;;;;7.50;3.83;;;;;;;4.52;100.00;96342.16;5023852;28;20200;-76
2021/01/30 08:41:46;;;;;;;3.67;3.20;;;;;;;4.56;100.00;96340.84;5017300;28;20283;-77
2021/01/30 08:44:49;;;;;;;8.50;4.07;;;;;;;4.67;100.00;96333.59;5019661;28;20229;-77
2021/01/30 08:47:20;;;;;;;5.00;2.60;;;;;;;4.67;100.00;96346.72;5021590;28;20347;-78
2021/01/30 08:50:04;;;;;;;17.77;16.23;;;;;;;4.77;100.00;96342.94;5020597;28;20211;-77
2021/01/30 08:52:41;;;;;;;11.80;4.70;;;;;;;4.73;100.00;96341.63;5018665;28;20235;-77
2021/01/30 08:55:37;;;;;;;7.10;3.77;;;;;;;4.74;100.00;96350.34;5031148;28;20231;-75
2021/01/30 08:58:05;;;;;;;6.97;3.40;;;;;;;4.80;100.00;96343.59;5018857;28;20204;-77
2021/01/30 09:01:04;;;;;;;6.90;2.93;;;;;;;4.81;100.00;96348.69;5023173;28;20200;-76
2021/01/30 09:03:49;;;;;;;9.47;4.87;;;;;;;4.93;100.00;96336.00;5016508;28;20522;-77
2021/01/30 09:06:56;;;;;;;2.23;2.03;;;;;;;4.93;100.00;96338.66;5017622;28;20278;-77
2021/01/30 09:09:28;;;;;;;5.37;3.23;;;;;;;5.02;100.00;96340.25;5012203;28;20235;-76
2021/01/30 09:12:02;;;;;;;14.20;7.77;;;;;;;5.10;100.00;96335.94;5018200;28;20696;-77
2021/01/30 09:14:39;;;;;;;8.63;3.80;;;;;;;5.12;99.86;96340.06;5016311;28;20259;-75
2021/01/30 09:17:33;;;;;;;9.17;4.77;;;;;;;5.19;100.00;96340.16;5015874;28;20228;-76
2021/01/30 09:20:12;;;;;;;7.87;3.70;;;;;;;5.18;100.00;96349.88;5008635;28;20674;-77
2021/01/30 09:22:54;;;;;;;7.20;4.03;;;;;;;5.13;99.20;96353.97;5012959;28;20284;-77
2021/01/30 09:25:32;;;;;;;10.97;3.90;;;;;;;5.20;100.00;96345.25;5017423;28;20254;-77
2021/01/30 09:28:05;;;;;;;9.03;3.70;;;;;;;5.07;100.00;96343.19;5020919;28;20204;-74
2021/01/30 09:30:41;;;;;;;6.63;2.80;;;;;;;4.97;100.00;96347.81;5017710;28;20212;-76
2021/01/30 09:33:13;;;;;;;6.77;3.00;;;;;;;4.86;100.00;96354.25;5018726;28;20212;-74
2021/01/30 09:35:43;;;;;;;6.13;4.17;;;;;;;4.87;100.00;96350.63;5021302;28;20204;-75
2021/01/30 09:38:23;;;;;;;8.07;3.10;;;;;;;4.82;100.00;96352.94;5020806;28;20220;-75
2021/01/30 09:41:05;;;;;;;7.63;3.60;;;;;;;4.86;100.00;96356.88;5018570;28;20212;-75
2021/01/30 09:43:32;;;;;;;6.20;2.93;;;;;;;4.88;100.00;96368.00;5019365;28;20231;-76
2021/01/30 09:46:02;;;;;;;3.13;2.80;;;;;;;4.91;100.00;96353.72;5020954;28;20569;-76
2021/01/30 09:48:30;;;;;;;6.03;3.37;;;;;;;4.80;100.00;96357.53;5022384;28;20270;-77
2021/01/30 09:50:59;;;;;;;4.07;2.53;;;;;;;4.78;100.00;96364.75;5019126;28;20204;-77
2021/01/30 09:53:30;;;;;;;5.60;3.13;;;;;;;4.79;100.00;96366.41;5025265;28;20596;-77
2021/01/30 09:56:05;;;;;;;5.40;3.17;;;;;;;4.72;100.00;96366.25;5016690;28;20220;-76
2021/01/30 09:58:32;;;;;;;7.43;3.40;;;;;;;4.76;100.00;96374.59;5019810;28;20199;-76
2021/01/30 10:01:07;;;;;;;5.73;3.37;;;;;;;4.77;100.00;96378.88;5018955;28;20228;-74
2021/01/30 10:03:38;;;;;;;5.47;3.20;;;;;;;4.93;100.00;96391.16;5017600;28;20371;-76
2021/01/30 10:06:10;;;;;;;2.27;2.10;;;;;;;4.23;98.59;96398.56;5014671;28;20196;-75
2021/01/30 10:08:37;;;;;;;2.10;2.00;;;;;;;3.50;100.00;96403.50;5017743;28;20220;-74
2021/01/30 10:11:06;;;;;;;2.77;2.43;;;;;;;3.07;100.00;96403.50;5020906;28;20596;-74
2021/01/30 10:13:34;;;;;;;1.80;1.70;;;;;;;2.94;100.00;96396.06;5019588;28;20231;-75
2021/01/30 10:16:03;;;;;;;3.67;3.37;;;;;;;2.75;100.00;96397.09;5014741;28;20224;-74
2021/01/30 10:18:33;;;;;;;4.23;3.83;;;;;;;2.73;100.00;96396.41;5016554;28;20204;-75
2021/01/30 10:21:01;;;;;;;6.67;5.40;;;;;;;2.60;100.00;96391.59;5017024;28;20216;-74
2021/01/30 10:23:31;;;;;;;2.90;2.70;;;;;;;2.50;100.00;96404.78;5018080;28;20228;-74
2021/01/30 10:26:05;;;;;;;2.93;2.73;;;;;;;2.40;100.00;96404.03;5024034;28;20213;-73
2021/01/30 10:28:44;;;;;;;2.90;2.70;;;;;;;2.32;100.00;96404.81;5019749;28;20199;-74
2021/01/30 10:31:13;;;;;;;7.73;6.70;;;;;;;2.34;100.00;96397.63;5015153;28;20204;-73
2021/01/30 10:33:44;;;;;;;7.03;6.27;;;;;;;2.15;100.00;96406.47;5020811;28;20228;-74
2021/01/30 10:36:12;;;;;;;4.77;3.33;;;;;;;2.13;100.00;96400.56;5013754;28;20224;-74
2021/01/30 10:38:39;;;;;;;6.60;5.97;;;;;;;2.08;100.00;96408.00;5022039;28;20216;-73
2021/01/30 10:41:07;;;;;;;7.93;7.23;;;;;;;1.98;100.00;96411.53;5018386;28;20212;-72
2021/01/30 10:43:36;;;;;;;6.80;6.10;;;;;;;1.91;100.00;96407.88;5021160;28;20231;-73
2021/01/30 10:46:06;;;;;;;22.37;17.80;;;;;;;1.86;100.00;96410.91;5018287;28;20612;-74
2021/01/30 10:48:37;;;;;;;12.93;9.60;;;;;;;1.84;100.00;96410.25;5027040;28;20364;-74
2021/01/30 10:51:07;;;;;;;6.50;5.90;;;;;;;1.91;100.00;96409.69;5020457;28;20208;-72
2021/01/30 10:53:35;;;;;;;12.40;11.30;;;;;;;1.96;100.00;96410.84;5022658;28;20216;-73
2021/01/30 10:56:13;;;;;;;6.97;6.40;;;;;;;2.11;100.00;96415.59;5019278;28;20691;-73
2021/01/30 10:58:40;;;;;;;11.03;10.13;;;;;;;1.96;100.00;96410.06;5020553;28;20690;-71
2021/01/30 11:01:10;;;;;;;9.27;8.10;;;;;;;1.90;100.00;96406.22;5014431;28;20206;-73
2021/01/30 11:03:44;;;;;;;5.13;4.83;;;;;;;1.94;100.00;96406.75;5018899;28;20319;-73
2021/01/30 11:06:22;;;;;;;15.50;14.13;;;;;;;1.95;100.00;96408.41;5016210;28;20201;-73
2021/01/30 11:08:50;;;;;;;7.27;6.70;;;;;;;2.17;100.00;96410.56;5016071;28;20208;-73
2021/01/30 11:11:24;;;;;;;3.70;3.40;;;;;;;2.21;100.00;96413.69;5022888;28;20690;-73
2021/01/30 11:13:51;;;;;;;5.90;5.40;;;;;;;2.30;100.00;96409.38;5016099;28;20235;-74
2021/01/30 11:16:36;;;;;;;6.00;5.50;;;;;;;2.25;100.00;96415.03;5025186;28;20253;-72
2021/01/30 11:19:18;;;;;;;4.97;4.57;;;;;;;2.27;100.00;96413.09;5024280;28;20204;-74
2021/01/30 11:21:45;;;;;;;2.83;2.73;;;;;;;2.17;100.00;96410.56;5021292;28;20214;-73
2021/01/30 11:24:17;;;;;;;3.13;2.90;;;;;;;2.16;100.00;96408.91;5014875;28;20224;-73
2021/01/30 11:26:44;;;;;;;5.27;4.30;;;;;;;2.24;100.00;96407.34;5023230;28;20219;-73
2021/01/30 11:29:41;;;;;;;3.30;3.00;;;;;;;2.09;100.00;96409.69;5017860;28;20200;-73
2021/01/30 11:32:12;;;;;;;2.73;2.53;;;;;;;1.87;100.00;96407.34;5027005;28;20724;-74
2021/01/30 11:34:41;;;;;;;3.03;2.83;;;;;;;1.83;100.00;96408.59;5020665;28;20256;-73
2021/01/30 11:37:08;;;;;;;3.63;3.33;;;;;;;1.80;100.00;96410.72;5016425;28;20314;-72
2021/01/30 11:39:36;;;;;;;3.17;2.97;;;;;;;1.79;100.00;96412.47;5023241;28;20215;-73
2021/01/30 11:42:04;;;;;;;3.00;2.80;;;;;;;1.88;100.00;96416.00;5020076;28;20278;-73
2021/01/30 11:44:31;;;;;;;3.30;3.10;;;;;;;1.90;100.00;96424.53;5018365;28;20636;-73
2021/01/30 11:46:58;;;;;;;3.90;3.20;;;;;;;1.91;100.00;96426.16;5020153;28;20283;-73
2021/01/30 11:49:25;;;;;;;2.60;2.50;;;;;;;1.99;100.00;96423.63;5019729;28;20768;-73
2021/01/30 11:51:54;;;;;;;2.47;2.37;;;;;;;2.08;100.00;96424.53;5026642;28;20208;-73
2021/01/30 11:54:21;;;;;;;1.70;1.60;;;;;;;2.13;100.00;96416.25;5017988;28;20228;-73
2021/01/30 11:56:48;;;;;;;2.33;1.83;;;;;;;1.95;100.00;96409.22;5021489;28;20413;-72
2021/01/30 11:59:15;;;;;;;2.00;1.90;;;;;;;2.01;100.00;96418.25;5024403;28;20201;-72
2021/01/30 12:01:42;;;;;;;1.77;1.73;;;;;;;1.85;100.00;96413.69;5017076;28;20234;-74